createdAt,value
2023-01-13T00:00:15.709Z,34.72
2023-01-13T00:02:42.389Z,23.58
2023-01-13T00:05:10.157Z,24.77
2023-01-13T00:07:38.253Z,19.77
2023-01-13T00:10:05.350Z,24.98
2023-01-13T00:12:31.993Z,22.35
2023-01-13T00:14:58.571Z,23.58
2023-01-13T00:17:25.181Z,26.63
2023-01-13T00:19:51.753Z,19.35
2023-01-13T00:22:18.431Z,25.55
2023-01-13T00:24:45.132Z,19.92
2023-01-13T00:27:11.693Z,28.70
2023-01-13T00:29:38.256Z,25.63
2023-01-13T00:32:04.890Z,23.95
2023-01-13T00:34:31.513Z,23.02
2023-01-13T00:36:58.107Z,30.25
2023-01-13T00:39:24.707Z,27.00
2023-01-13T00:42:10.197Z,29.42
2023-01-13T00:44:36.755Z,19.15
2023-01-13T00:47:03.424Z,25.13
2023-01-13T00:49:30.055Z,29.73
2023-01-13T00:51:56.626Z,21.98
2023-01-13T00:54:23.308Z,28.92
2023-01-13T00:56:49.885Z,26.48
2023-01-13T00:59:16.471Z,23.13
2023-01-13T01:01:43.309Z,29.05
2023-01-13T01:04:10.919Z,23.45
2023-01-13T01:06:37.812Z,31.27
2023-01-13T01:09:05.524Z,22.08
2023-01-13T01:11:33.084Z,26.63
2023-01-13T01:14:02.390Z,25.05
2023-01-13T01:16:31.158Z,28.42
2023-01-13T01:18:58.118Z,24.10
2023-01-13T01:21:26.961Z,26.48
2023-01-13T01:23:54.443Z,28.38
2023-01-13T01:26:23.905Z,23.40
2023-01-13T01:28:51.308Z,20.25
2023-01-13T01:31:28.292Z,22.30
2023-01-13T01:33:55.662Z,21.52
2023-01-13T01:36:23.807Z,28.60
2023-01-13T01:38:50.537Z,25.77
2023-01-13T01:41:20.380Z,23.50
2023-01-13T01:43:59.866Z,22.63
2023-01-13T01:46:32.711Z,24.20
2023-01-13T01:49:21.383Z,26.38
2023-01-13T01:52:11.148Z,20.33
2023-01-13T01:54:46.775Z,19.92
2023-01-13T01:57:19.646Z,21.67
2023-01-13T01:59:46.371Z,27.23
2023-01-13T02:02:13.427Z,18.52
2023-01-13T02:04:43.049Z,23.95
2023-01-13T02:07:09.641Z,22.35
2023-01-13T02:09:36.791Z,30.05
2023-01-13T02:12:22.069Z,29.05
2023-01-13T02:14:49.775Z,24.55
2023-01-13T02:17:45.544Z,22.02
2023-01-13T02:20:30.640Z,19.13
2023-01-13T02:23:35.291Z,20.20
2023-01-13T02:26:19.690Z,28.17
2023-01-13T02:29:23.672Z,26.80
2023-01-13T02:31:54.216Z,21.52
2023-01-13T02:34:27.964Z,21.38
2023-01-13T02:37:03.468Z,24.60
2023-01-13T02:39:38.393Z,22.27
2023-01-13T02:42:25.838Z,30.15
2023-01-13T02:45:01.659Z,34.10
2023-01-13T02:47:32.661Z,26.65
2023-01-13T02:50:03.766Z,23.70
2023-01-13T02:52:48.783Z,26.65
2023-01-13T02:55:28.942Z,27.45
2023-01-13T02:57:58.607Z,31.58
2023-01-13T03:00:26.441Z,21.88
2023-01-13T03:02:53.141Z,25.33
2023-01-13T03:05:20.052Z,27.00
2023-01-13T03:08:22.964Z,21.65
2023-01-13T03:11:09.008Z,27.63
2023-01-13T03:13:50.832Z,21.98
2023-01-13T03:16:42.582Z,36.33
2023-01-13T03:19:26.668Z,29.67
2023-01-13T03:22:25.666Z,20.98
2023-01-13T03:25:00.723Z,21.98
2023-01-13T03:27:51.614Z,20.25
2023-01-13T03:30:40.997Z,32.80
2023-01-13T03:33:18.019Z,28.08
2023-01-13T03:35:48.888Z,20.38
2023-01-13T03:38:20.952Z,26.65
2023-01-13T03:40:55.860Z,19.75
2023-01-13T03:43:47.537Z,22.55
2023-01-13T03:46:21.957Z,28.80
2023-01-13T03:48:54.774Z,23.80
2023-01-13T03:51:24.706Z,21.50
2023-01-13T03:54:09.180Z,25.65
2023-01-13T03:56:45.794Z,21.75
2023-01-13T03:59:20.249Z,17.75
2023-01-13T04:01:47.139Z,15.80
2023-01-13T04:04:22.051Z,13.27
2023-01-13T04:06:56.477Z,18.60
2023-01-13T04:09:38.736Z,19.00
2023-01-13T04:12:13.449Z,17.80
2023-01-13T04:14:40.709Z,22.30
2023-01-13T04:17:07.332Z,28.20
2023-01-13T04:19:33.981Z,33.00
2023-01-13T04:22:00.599Z,35.42
2023-01-13T04:24:27.265Z,23.17
2023-01-13T04:26:53.895Z,24.95
2023-01-13T04:29:20.472Z,24.58
2023-01-13T04:31:47.117Z,24.20
2023-01-13T04:34:13.817Z,19.83
2023-01-13T04:36:40.548Z,22.85
2023-01-13T04:39:07.174Z,15.57
2023-01-13T04:41:53.807Z,11.85
2023-01-13T04:44:20.455Z,13.02
2023-01-13T04:46:47.343Z,7.70
2023-01-13T04:49:14.085Z,15.00
2023-01-13T04:51:40.778Z,9.13
2023-01-13T04:54:07.399Z,12.93
2023-01-13T04:56:34.038Z,10.20
2023-01-13T04:59:00.661Z,11.20
2023-01-13T05:01:27.473Z,12.52
2023-01-13T05:03:54.167Z,6.88
2023-01-13T05:06:20.798Z,10.13
2023-01-13T05:08:47.534Z,11.75
2023-01-13T05:11:32.914Z,7.43
2023-01-13T05:14:18.229Z,12.25
2023-01-13T05:17:03.505Z,14.20
2023-01-13T05:19:40.549Z,12.52
2023-01-13T05:22:25.730Z,10.45
2023-01-13T05:25:11.133Z,9.30
2023-01-13T05:27:37.764Z,16.30
2023-01-13T05:30:05.537Z,10.40
2023-01-13T05:32:32.208Z,7.65
2023-01-13T05:34:58.940Z,14.18
2023-01-13T05:37:26.788Z,10.27
2023-01-13T05:40:12.723Z,9.23
2023-01-13T05:42:58.362Z,14.45
2023-01-13T05:45:25.129Z,16.23
2023-01-13T05:47:51.853Z,15.73
2023-01-13T05:50:18.621Z,13.82
2023-01-13T05:52:45.275Z,10.95
2023-01-13T05:55:12.433Z,14.27
2023-01-13T05:57:39.026Z,16.23
2023-01-13T06:00:06.385Z,18.20
2023-01-13T06:02:33.191Z,14.00
2023-01-13T06:04:59.832Z,17.67
2023-01-13T06:07:26.471Z,14.27
2023-01-13T06:09:53.548Z,20.02
2023-01-13T06:12:20.138Z,18.08
2023-01-13T06:14:46.759Z,17.10
2023-01-13T06:17:14.974Z,11.35
2023-01-13T06:19:42.438Z,21.05
2023-01-13T06:22:17.339Z,14.48
2023-01-13T06:24:48.516Z,12.68
2023-01-13T06:27:15.519Z,19.70
2023-01-13T06:29:42.240Z,10.15
2023-01-13T06:32:22.301Z,16.25
2023-01-13T06:34:53.640Z,22.40
2023-01-13T06:37:25.344Z,15.95
2023-01-13T06:39:57.990Z,15.18
2023-01-13T06:42:46.817Z,10.85
2023-01-13T06:45:13.646Z,16.95
2023-01-13T06:47:40.776Z,19.55
2023-01-13T06:50:07.975Z,12.38
2023-01-13T06:52:34.562Z,14.00
2023-01-13T06:55:01.283Z,10.10
2023-01-13T06:57:27.861Z,9.07
2023-01-13T06:59:54.516Z,14.48
2023-01-13T07:02:21.304Z,15.40
2023-01-13T07:04:48.779Z,17.35
2023-01-13T07:07:15.443Z,17.85
2023-01-13T07:09:42.083Z,16.50
2023-01-13T07:12:08.790Z,14.20
2023-01-13T07:14:54.523Z,22.00
2023-01-13T07:17:25.072Z,14.38
2023-01-13T07:19:52.614Z,19.17
2023-01-13T07:22:19.313Z,15.23
2023-01-13T07:24:45.943Z,17.60
2023-01-13T07:27:12.599Z,12.32
2023-01-13T07:29:39.712Z,17.05
2023-01-13T07:32:07.729Z,13.38
2023-01-13T07:34:34.378Z,20.30
2023-01-13T07:37:01.536Z,16.38
2023-01-13T07:39:28.219Z,17.25
2023-01-13T07:42:13.620Z,22.67
2023-01-13T07:44:40.246Z,22.23
2023-01-13T07:47:08.479Z,16.27
2023-01-13T07:49:35.110Z,21.77
2023-01-13T07:52:02.135Z,20.55
2023-01-13T07:54:40.125Z,12.25
2023-01-13T07:57:08.027Z,16.02
2023-01-13T07:59:34.688Z,21.98
2023-01-13T08:02:01.553Z,17.20
2023-01-13T08:04:28.262Z,21.27
2023-01-13T08:06:54.910Z,15.05
2023-01-13T08:09:21.693Z,12.52
2023-01-13T08:12:08.284Z,20.90
2023-01-13T08:14:34.981Z,15.65
2023-01-13T08:17:01.591Z,26.25
2023-01-13T08:19:28.288Z,14.65
2023-01-13T08:21:54.923Z,14.70
2023-01-13T08:24:21.514Z,19.02
2023-01-13T08:26:48.133Z,19.73
2023-01-13T08:29:15.280Z,15.20
2023-01-13T08:31:41.982Z,13.32
2023-01-13T08:34:08.902Z,16.67
2023-01-13T08:36:35.606Z,19.20
2023-01-13T08:39:02.289Z,19.17
2023-01-13T08:41:49.244Z,13.80
2023-01-13T08:44:15.837Z,21.13
2023-01-13T08:46:42.726Z,11.07
2023-01-13T08:49:09.372Z,22.63
2023-01-13T08:51:36.020Z,19.02
2023-01-13T08:54:03.366Z,14.80
2023-01-13T08:56:32.749Z,11.68
2023-01-13T08:59:01.184Z,18.63
2023-01-13T09:01:28.108Z,19.58
2023-01-13T09:03:55.619Z,19.30
2023-01-13T09:06:22.288Z,21.02
2023-01-13T09:08:48.970Z,12.45
2023-01-13T09:11:38.749Z,24.77
2023-01-13T09:14:05.648Z,16.00
2023-01-13T09:16:32.235Z,17.55
2023-01-13T09:18:58.818Z,17.95
2023-01-13T09:21:26.478Z,14.75
2023-01-13T09:23:53.117Z,15.40
2023-01-13T09:26:21.559Z,20.67
2023-01-13T09:28:48.320Z,19.70
2023-01-13T09:31:15.036Z,15.05
2023-01-13T09:34:00.496Z,11.68
2023-01-13T09:36:27.173Z,16.27
2023-01-13T09:38:53.896Z,15.15
2023-01-13T09:41:40.779Z,17.52
2023-01-13T09:44:13.633Z,20.10
2023-01-13T09:46:47.684Z,16.63
2023-01-13T09:49:28.933Z,15.02
2023-01-13T09:51:58.793Z,18.67
2023-01-13T09:54:32.224Z,14.13
2023-01-13T09:56:59.601Z,18.08
2023-01-13T09:59:34.607Z,16.20
2023-01-13T10:02:12.609Z,15.77
2023-01-13T10:04:39.201Z,18.38
2023-01-13T10:07:14.797Z,17.73
2023-01-13T10:09:50.617Z,17.27
2023-01-13T10:12:42.882Z,11.65
2023-01-13T10:18:07.407Z,17.88
2023-01-13T10:20:56.129Z,18.60
2023-01-13T10:23:42.638Z,17.95
2023-01-13T10:26:09.209Z,13.15
2023-01-13T10:28:36.047Z,17.73
2023-01-13T10:31:10.701Z,12.95
2023-01-13T10:33:37.354Z,15.20
2023-01-13T10:36:17.120Z,18.25
2023-01-13T10:38:49.152Z,14.80
2023-01-13T10:41:15.689Z,21.35
2023-01-13T10:43:59.256Z,19.02
2023-01-13T10:46:26.055Z,12.88
2023-01-13T10:48:58.111Z,15.70
2023-01-13T10:51:27.577Z,13.25
2023-01-13T10:53:59.978Z,18.13
2023-01-13T10:56:29.725Z,16.48
2023-01-13T10:59:14.911Z,16.30
2023-01-13T11:02:24.805Z,14.70
2023-01-13T11:04:54.640Z,11.98
2023-01-13T11:07:35.202Z,14.82
2023-01-13T11:10:18.982Z,17.33
2023-01-13T11:13:12.800Z,12.00
2023-01-13T11:16:10.614Z,12.82
2023-01-13T11:19:01.896Z,18.27
2023-01-13T11:21:38.900Z,13.75
2023-01-13T11:24:21.214Z,20.05
2023-01-13T11:27:02.006Z,13.32
2023-01-13T11:29:31.692Z,13.98
2023-01-13T11:32:12.501Z,16.10
2023-01-13T11:34:41.816Z,12.15
2023-01-13T11:37:31.142Z,13.52
2023-01-13T11:40:07.277Z,10.30
2023-01-13T11:42:59.924Z,10.07
2023-01-13T11:45:40.953Z,8.52
2023-01-13T11:48:15.103Z,10.00
2023-01-13T11:50:51.043Z,7.13
2023-01-13T11:53:32.485Z,17.35
2023-01-13T11:56:27.530Z,10.10
2023-01-13T11:59:15.437Z,12.30
2023-01-13T12:02:02.363Z,9.73
2023-01-13T12:05:03.531Z,19.98
2023-01-13T12:07:50.786Z,12.93
2023-01-13T12:10:35.988Z,9.18
2023-01-13T12:13:20.596Z,12.40
2023-01-13T12:16:11.030Z,17.85
2023-01-13T12:19:24.567Z,11.35
2023-01-13T12:22:08.633Z,14.80
2023-01-13T12:25:04.549Z,9.70
2023-01-13T12:27:49.097Z,13.00
2023-01-13T12:30:21.465Z,14.43
2023-01-13T12:32:49.448Z,10.98
2023-01-13T12:35:49.778Z,12.35
2023-01-13T12:38:37.175Z,10.55
2023-01-13T12:41:26.683Z,6.15
2023-01-13T12:44:12.500Z,10.95
2023-01-13T12:46:50.619Z,10.00
2023-01-13T12:49:30.106Z,11.48
2023-01-13T12:51:56.653Z,11.55
2023-01-13T12:54:43.327Z,9.82
2023-01-13T12:57:25.147Z,9.85
2023-01-13T13:00:03.845Z,14.13
2023-01-13T13:02:33.423Z,16.95
2023-01-13T13:05:22.756Z,7.70
2023-01-13T13:07:51.494Z,14.07
2023-01-13T13:10:31.476Z,9.93
2023-01-13T13:13:18.018Z,7.95
2023-01-13T13:15:49.725Z,10.40
2023-01-13T13:18:20.362Z,8.35
2023-01-13T13:21:04.508Z,13.20
2023-01-13T13:23:37.831Z,9.73
2023-01-13T13:26:20.130Z,10.30
2023-01-13T13:29:12.919Z,8.18
2023-01-13T13:32:01.388Z,11.63
2023-01-13T13:34:33.947Z,10.18
2023-01-13T13:37:25.215Z,12.60
2023-01-13T13:40:10.979Z,11.57
2023-01-13T13:43:05.825Z,5.63
2023-01-13T13:45:51.130Z,7.65
2023-01-13T13:48:25.767Z,10.20
2023-01-13T13:51:01.698Z,10.73
2023-01-13T13:53:39.449Z,18.13
2023-01-13T13:56:20.741Z,8.27
2023-01-13T13:58:49.201Z,9.63
2023-01-13T14:01:32.572Z,13.93
2023-01-13T14:04:10.905Z,10.48
2023-01-13T14:06:37.493Z,17.23
2023-01-13T14:09:04.489Z,13.85
2023-01-13T14:11:33.419Z,7.15
2023-01-13T14:14:13.044Z,13.30
2023-01-13T14:16:40.951Z,13.07
2023-01-13T14:19:33.231Z,12.27
2023-01-13T14:22:04.572Z,8.23
2023-01-13T14:24:32.267Z,10.48
2023-01-13T14:27:10.191Z,7.88
2023-01-13T14:29:37.161Z,16.92
2023-01-13T14:32:05.321Z,8.43
2023-01-13T14:34:33.480Z,14.23
2023-01-13T14:37:01.343Z,15.63
2023-01-13T14:39:40.696Z,12.50
2023-01-13T14:42:15.185Z,8.55
2023-01-13T14:44:49.115Z,13.00
2023-01-13T14:47:24.610Z,7.43
2023-01-13T14:50:02.364Z,11.25
2023-01-13T14:52:32.417Z,9.32
2023-01-13T14:55:09.088Z,9.43
2023-01-13T14:57:41.531Z,9.00
2023-01-13T15:00:14.299Z,9.60
2023-01-13T15:02:48.187Z,14.57
2023-01-13T15:05:18.508Z,14.25
2023-01-13T15:08:11.111Z,7.93
2023-01-13T15:10:52.612Z,6.80
2023-01-13T15:13:35.757Z,12.45
2023-01-13T15:16:13.064Z,11.27
2023-01-13T15:18:39.984Z,8.50
2023-01-13T15:21:08.120Z,16.38
2023-01-13T15:23:35.028Z,11.93
2023-01-13T15:26:02.070Z,11.80
2023-01-13T15:28:29.844Z,11.55
2023-01-13T15:31:00.509Z,10.65
2023-01-13T15:33:27.563Z,13.73
2023-01-13T15:35:54.818Z,6.28
2023-01-13T15:38:23.252Z,13.77
2023-01-13T15:40:51.644Z,8.77
2023-01-13T15:43:39.179Z,7.95
2023-01-13T15:46:39.419Z,14.70
2023-01-13T15:49:15.061Z,14.35
2023-01-13T15:51:43.559Z,9.32
2023-01-13T15:54:11.956Z,10.25
2023-01-13T15:56:39.296Z,13.77
2023-01-13T15:59:15.199Z,14.27
2023-01-13T16:01:41.840Z,11.70
2023-01-13T16:04:09.757Z,15.63
2023-01-13T16:06:37.219Z,14.63
2023-01-13T16:09:04.859Z,13.80
2023-01-13T16:11:31.566Z,18.15
2023-01-13T16:13:58.230Z,9.88
2023-01-13T16:16:27.195Z,11.70
2023-01-13T16:18:54.743Z,10.23
2023-01-13T16:21:21.970Z,15.80
2023-01-13T16:23:49.809Z,11.95
2023-01-13T16:26:29.237Z,16.52
2023-01-13T16:28:57.881Z,19.15
2023-01-13T16:31:31.828Z,19.70
2023-01-13T16:34:00.099Z,14.98
2023-01-13T16:36:28.159Z,16.35
2023-01-13T16:38:56.723Z,18.73
2023-01-13T16:41:24.949Z,9.20
2023-01-13T16:43:51.958Z,32.97
2023-01-13T16:46:24.879Z,10.13
2023-01-13T16:48:53.470Z,32.38
2023-01-13T16:51:21.048Z,37.42
2023-01-13T16:53:47.981Z,31.15
2023-01-13T16:56:28.499Z,9.77
2023-01-13T16:58:57.800Z,25.77
2023-01-13T17:01:29.946Z,15.07
2023-01-13T17:03:57.617Z,31.00
2023-01-13T17:06:41.511Z,17.98
2023-01-13T17:09:15.632Z,9.40
2023-01-13T17:11:42.256Z,16.65
2023-01-13T17:14:18.556Z,16.02
2023-01-13T17:16:46.508Z,7.18
2023-01-13T17:19:13.405Z,4.10
2023-01-13T17:21:40.212Z,7.97
2023-01-13T17:24:07.899Z,8.27
2023-01-13T17:26:43.990Z,6.75
2023-01-13T17:29:17.444Z,4.22
2023-01-13T17:31:44.676Z,9.07
2023-01-13T17:34:12.478Z,6.20
2023-01-13T17:36:39.205Z,4.20
2023-01-13T17:39:06.268Z,4.88
2023-01-13T17:41:32.863Z,7.10
2023-01-13T17:43:59.574Z,4.75
2023-01-13T17:46:26.216Z,10.82
2023-01-13T17:48:53.925Z,4.80
2023-01-13T17:51:22.692Z,10.10
2023-01-13T17:53:49.434Z,9.82
2023-01-13T17:56:17.189Z,9.43
2023-01-13T17:58:45.438Z,11.30
2023-01-13T18:01:16.051Z,12.98
2023-01-13T18:03:42.960Z,8.18
2023-01-13T18:06:16.229Z,10.57
2023-01-13T18:08:43.089Z,15.05
2023-01-13T18:11:09.799Z,14.40
2023-01-13T18:13:37.248Z,11.45
2023-01-13T18:16:15.515Z,6.90
2023-01-13T18:18:43.880Z,12.50
2023-01-13T18:21:37.670Z,8.93
2023-01-13T18:24:24.202Z,13.75
2023-01-13T18:27:09.717Z,14.63
2023-01-13T18:29:36.345Z,9.75
2023-01-13T18:32:03.067Z,10.65
2023-01-13T18:34:29.754Z,10.75
2023-01-13T18:36:56.345Z,7.95
2023-01-13T18:39:22.971Z,9.38
2023-01-13T18:42:08.101Z,7.30
2023-01-13T18:44:34.801Z,8.02
2023-01-13T18:47:01.402Z,7.95
2023-01-13T18:49:28.125Z,8.18
2023-01-13T18:51:54.825Z,10.32
2023-01-13T18:54:21.533Z,9.25
2023-01-13T18:56:49.356Z,9.57
2023-01-13T18:59:17.023Z,8.30
2023-01-13T19:01:43.964Z,8.05
2023-01-13T19:04:15.846Z,11.35
2023-01-13T19:09:20.492Z,9.98
2023-01-13T19:11:47.144Z,10.63
2023-01-13T19:14:33.996Z,21.58
2023-01-13T19:17:02.117Z,10.88
2023-01-13T19:19:29.450Z,17.42
2023-01-13T19:21:56.411Z,13.10
2023-01-13T19:24:25.839Z,15.90
2023-01-13T19:26:54.246Z,13.82
2023-01-13T19:29:20.921Z,9.55
2023-01-13T19:31:48.242Z,7.95
2023-01-13T19:34:15.249Z,11.30
2023-01-13T19:36:41.936Z,11.25
2023-01-13T19:39:08.708Z,8.10
2023-01-13T19:41:54.424Z,10.15
2023-01-13T19:44:39.773Z,8.93
2023-01-13T19:47:06.486Z,7.57
2023-01-13T19:49:33.310Z,10.50
2023-01-13T19:51:59.959Z,14.25
2023-01-13T19:54:26.701Z,4.75
2023-01-13T19:56:53.342Z,14.18
2023-01-13T19:59:22.092Z,8.57
2023-01-13T20:01:48.999Z,12.07
2023-01-13T20:04:19.241Z,11.32
2023-01-13T20:06:46.508Z,8.77
2023-01-13T20:09:13.177Z,11.32
2023-01-13T20:11:39.832Z,8.48
2023-01-13T20:14:06.428Z,8.68
2023-01-13T20:16:33.671Z,10.52
2023-01-13T20:19:00.454Z,6.13
2023-01-13T20:21:27.104Z,8.40
2023-01-13T20:23:53.842Z,25.20
2023-01-13T20:26:21.190Z,9.13
2023-01-13T20:28:48.126Z,9.23
2023-01-13T20:31:15.565Z,6.63
2023-01-13T20:33:42.898Z,10.88
2023-01-13T20:36:31.382Z,11.15
2023-01-13T20:39:02.032Z,12.45
2023-01-13T20:41:47.075Z,5.53
2023-01-13T20:44:14.580Z,6.22
2023-01-13T20:46:42.780Z,6.22
2023-01-13T20:49:14.754Z,10.63
2023-01-13T20:51:42.233Z,13.82
2023-01-13T20:54:09.312Z,10.07
2023-01-13T20:56:37.022Z,7.30
2023-01-13T20:59:04.600Z,14.02
2023-01-13T21:01:32.250Z,13.52
2023-01-13T21:04:00.248Z,16.55
2023-01-13T21:06:28.297Z,12.27
2023-01-13T21:08:55.938Z,13.30
2023-01-13T21:11:44.588Z,14.82
2023-01-13T21:14:41.860Z,13.63
2023-01-13T21:17:28.327Z,7.97
2023-01-13T21:19:55.390Z,16.83
2023-01-13T21:22:22.046Z,10.75
2023-01-13T21:24:48.682Z,10.88
2023-01-13T21:27:15.399Z,10.90
2023-01-13T21:29:44.485Z,12.27
2023-01-13T21:32:11.342Z,14.52
2023-01-13T21:34:38.369Z,7.93
2023-01-13T21:37:05.061Z,13.10
2023-01-13T21:39:31.677Z,11.00
2023-01-13T21:42:16.955Z,10.98
2023-01-13T21:45:02.163Z,19.83
2023-01-13T21:47:47.557Z,10.32
2023-01-13T21:50:16.527Z,18.88
2023-01-13T21:52:43.287Z,11.48
2023-01-13T21:55:17.627Z,12.95
2023-01-13T21:57:58.675Z,9.18
2023-01-13T22:00:27.915Z,7.63
2023-01-13T22:02:54.785Z,12.75
2023-01-13T22:05:23.228Z,7.00
2023-01-13T22:07:50.816Z,9.98
2023-01-13T22:10:23.191Z,11.90
2023-01-13T22:12:53.260Z,8.30
2023-01-13T22:15:20.165Z,11.48
2023-01-13T22:17:51.075Z,13.68
2023-01-13T22:20:19.097Z,13.77
2023-01-13T22:22:46.201Z,14.75
2023-01-13T22:25:14.964Z,10.85
2023-01-13T22:27:44.178Z,15.43
2023-01-13T22:30:17.509Z,11.23
2023-01-13T22:32:45.375Z,12.85
2023-01-13T22:35:13.420Z,12.05
2023-01-13T22:37:40.308Z,11.52
2023-01-13T22:40:10.452Z,14.25
2023-01-13T22:42:38.690Z,13.73
2023-01-13T22:45:07.582Z,8.80
2023-01-13T22:47:35.341Z,9.60
2023-01-13T22:50:02.200Z,12.23
2023-01-13T22:52:29.132Z,8.25
2023-01-13T22:54:55.747Z,15.25
2023-01-13T22:57:23.995Z,11.05
2023-01-13T22:59:50.712Z,9.20
2023-01-13T23:02:17.380Z,11.50
2023-01-13T23:04:44.068Z,8.35
2023-01-13T23:07:10.764Z,12.52
2023-01-13T23:09:37.462Z,13.75
2023-01-13T23:12:04.301Z,14.52
2023-01-13T23:14:30.945Z,9.52
2023-01-13T23:16:57.619Z,12.07
2023-01-13T23:19:24.557Z,13.30
2023-01-13T23:21:51.201Z,17.30
2023-01-13T23:24:17.953Z,11.43
2023-01-13T23:26:44.560Z,13.73
2023-01-13T23:29:13.157Z,14.13
2023-01-13T23:31:40.217Z,11.35
2023-01-13T23:34:06.937Z,13.57
2023-01-13T23:36:36.765Z,9.65
2023-01-13T23:39:03.779Z,13.60
2023-01-13T23:41:30.375Z,12.05
2023-01-13T23:43:59.317Z,11.45
2023-01-13T23:46:27.586Z,8.43
2023-01-13T23:48:55.406Z,13.30
2023-01-13T23:51:22.825Z,13.45
2023-01-13T23:53:50.794Z,14.20
2023-01-13T23:56:20.520Z,19.95
2023-01-13T23:58:47.685Z,17.65
